createdAt,value
2018-02-23T07:10:24.643Z,-2.54
2018-02-23T07:11:27.128Z,-2.48
2018-02-23T07:12:29.626Z,-2.44
2018-02-23T07:13:32.106Z,-2.31
2018-02-23T07:14:34.593Z,-2.22
2018-02-23T07:15:37.130Z,-2.24
2018-02-23T07:16:39.620Z,-2.28
2018-02-23T07:17:42.102Z,-2.22
2018-02-23T07:18:44.583Z,-2.17
2018-02-23T07:19:47.063Z,-2.06
2018-02-23T07:20:49.553Z,-2.04
2018-02-23T07:21:52.069Z,-2.12
2018-02-23T07:22:54.565Z,-2.18
2018-02-23T07:23:57.059Z,-2.15
2018-02-23T07:24:59.546Z,-2.12
2018-02-23T07:26:02.033Z,-1.93
2018-02-23T07:27:04.521Z,-1.88
2018-02-23T07:28:06.998Z,-1.82
2018-02-23T07:29:09.467Z,-1.92
2018-02-23T07:30:11.939Z,-1.82
2018-02-23T07:31:14.413Z,-1.99
2018-02-23T07:32:16.891Z,-1.96
2018-02-23T07:33:19.378Z,-1.94
2018-02-23T07:34:21.901Z,-1.81
2018-02-23T07:35:24.371Z,-1.78
2018-02-23T07:36:26.846Z,-1.75
2018-02-23T07:37:29.333Z,-1.78
2018-02-23T07:38:31.932Z,-1.81
2018-02-23T07:39:34.421Z,-1.70
2018-02-23T07:40:36.929Z,-1.57
2018-02-23T07:41:39.417Z,-1.57
2018-02-23T07:42:41.903Z,-1.63
2018-02-23T07:43:44.389Z,-1.69
2018-02-23T07:44:46.862Z,-1.76
2018-02-23T07:45:49.355Z,-1.56
2018-02-23T07:46:51.888Z,-1.34
2018-02-23T07:47:54.380Z,-1.03
2018-02-23T07:48:56.923Z,-0.93
2018-02-23T07:49:59.405Z,-0.47
2018-02-23T07:51:01.936Z,0.06
2018-02-23T07:52:04.411Z,0.40
2018-02-23T07:53:06.964Z,1.46
2018-02-23T07:54:09.442Z,2.96
2018-02-23T07:55:11.980Z,3.71
2018-02-23T07:56:14.446Z,4.69
2018-02-23T07:57:16.946Z,5.63
2018-02-23T07:58:19.438Z,6.50
2018-02-23T07:59:21.919Z,7.37
2018-02-23T08:00:24.400Z,7.94
2018-02-23T08:01:26.883Z,8.23
2018-02-23T08:02:29.360Z,8.41
2018-02-23T08:03:31.841Z,8.99
2018-02-23T08:04:34.324Z,9.70
2018-02-23T08:05:36.797Z,9.38
2018-02-23T08:06:39.294Z,9.88
2018-02-23T08:07:41.777Z,9.68
2018-02-23T08:08:44.270Z,10.19
2018-02-23T08:09:46.739Z,9.13
2018-02-23T08:10:49.217Z,9.93
2018-02-23T08:11:51.702Z,9.42
2018-02-23T08:12:54.182Z,8.41
2018-02-23T08:13:56.665Z,8.38
2018-02-23T08:14:59.159Z,9.43
2018-02-23T08:16:01.710Z,8.61
2018-02-23T08:17:04.178Z,9.56
2018-02-23T08:18:06.766Z,9.40
2018-02-23T08:19:09.252Z,9.31
2018-02-23T08:20:11.724Z,9.09
2018-02-23T08:21:14.191Z,8.20
2018-02-23T08:22:16.664Z,7.16
2018-02-23T08:23:19.128Z,8.13
2018-02-23T08:24:21.603Z,8.79
2018-02-23T08:25:24.086Z,8.24
2018-02-23T08:26:26.653Z,8.02
2018-02-23T08:27:29.097Z,7.82
2018-02-23T08:28:31.591Z,8.48
2018-02-23T08:29:34.093Z,8.65
2018-02-23T08:30:36.582Z,8.73
2018-02-23T08:31:39.056Z,8.23
2018-02-23T08:32:41.548Z,7.61
2018-02-23T08:33:44.034Z,7.19
2018-02-23T08:34:46.514Z,7.81
2018-02-23T08:35:49.010Z,9.04
2018-02-23T08:36:51.506Z,8.95
2018-02-23T08:37:53.981Z,8.33
2018-02-23T08:38:56.463Z,7.27
2018-02-23T08:39:58.925Z,6.53
2018-02-23T08:41:01.460Z,5.91
2018-02-23T08:42:03.935Z,6.20
2018-02-23T08:43:06.411Z,6.06
2018-02-23T08:44:08.899Z,6.97
2018-02-23T08:45:11.402Z,7.03
2018-02-23T08:46:13.876Z,7.33
2018-02-23T08:47:16.339Z,6.74
2018-02-23T08:48:18.813Z,5.91
2018-02-23T08:49:21.289Z,5.87
2018-02-23T08:50:23.769Z,6.13
2018-02-23T08:51:26.237Z,5.44
2018-02-23T08:52:28.699Z,6.38
2018-02-23T08:53:31.166Z,6.82
2018-02-23T08:54:33.644Z,7.12
2018-02-23T08:55:36.143Z,5.84
2018-02-23T08:56:38.718Z,5.75
2018-02-23T08:57:41.187Z,5.62
2018-02-23T08:58:43.660Z,5.35
2018-02-23T08:59:46.141Z,5.24
2018-02-23T09:00:48.626Z,5.35
2018-02-23T09:01:51.087Z,5.72
2018-02-23T09:02:53.565Z,5.72
2018-02-23T09:03:56.031Z,5.77
2018-02-23T09:04:58.523Z,6.55
2018-02-23T09:06:00.989Z,6.62
2018-02-23T09:07:03.499Z,7.26
2018-02-23T09:08:05.980Z,7.27
2018-02-23T09:09:08.470Z,6.76
2018-02-23T09:10:10.965Z,6.73
2018-02-23T09:11:13.443Z,6.93
2018-02-23T09:12:15.997Z,6.02
2018-02-23T09:13:18.459Z,6.49
2018-02-23T09:14:20.929Z,7.11
2018-02-23T09:15:23.409Z,6.94
2018-02-23T09:16:25.881Z,7.17
2018-02-23T09:17:28.369Z,7.01
2018-02-23T09:18:31.556Z,6.89
2018-02-23T09:19:34.051Z,6.70
2018-02-23T09:20:36.547Z,7.48
2018-02-23T09:21:39.048Z,8.15
2018-02-23T09:22:41.524Z,7.91
2018-02-23T09:23:44.005Z,8.47
2018-02-23T09:24:46.471Z,9.02
2018-02-23T09:25:48.939Z,9.12
2018-02-23T09:26:51.415Z,9.11
2018-02-23T09:27:53.889Z,8.42
2018-02-23T09:28:56.371Z,8.40
2018-02-23T09:29:58.872Z,8.87
2018-02-23T09:31:01.381Z,9.43
2018-02-23T09:32:03.865Z,9.50
2018-02-23T09:33:06.345Z,10.66
2018-02-23T09:34:20.505Z,11.45
2018-02-23T09:35:22.985Z,11.83
2018-02-23T09:36:25.451Z,12.32
2018-02-23T09:37:27.932Z,10.48
2018-02-23T09:38:30.421Z,8.42
2018-02-23T09:39:32.881Z,7.97
2018-02-23T09:40:35.351Z,8.25
2018-02-23T09:41:37.838Z,8.14
2018-02-23T09:42:40.405Z,7.43
2018-02-23T09:43:42.949Z,7.11
2018-02-23T09:44:45.902Z,7.89
2018-02-23T09:45:48.438Z,8.49
2018-02-23T09:46:50.909Z,8.59
2018-02-23T09:47:53.373Z,8.86
2018-02-23T09:48:55.840Z,8.20
2018-02-23T09:49:58.347Z,8.19
2018-02-23T09:51:00.952Z,8.16
2018-02-23T09:52:03.429Z,8.32
2018-02-23T09:53:05.914Z,8.38
2018-02-23T09:54:08.405Z,8.98
2018-02-23T09:55:10.880Z,9.85
2018-02-23T09:56:13.351Z,9.37
2018-02-23T09:57:15.820Z,8.97
2018-02-23T09:58:18.486Z,10.32
2018-02-23T09:59:20.964Z,9.44
2018-02-23T10:00:23.449Z,8.66
2018-02-23T10:01:25.926Z,8.76
2018-02-23T10:02:28.437Z,9.07
2018-02-23T10:03:30.899Z,8.71
2018-02-23T10:04:33.378Z,8.57
2018-02-23T10:05:35.874Z,9.02
2018-02-23T10:06:38.375Z,9.47
2018-02-23T10:07:40.845Z,9.55
2018-02-23T10:08:43.303Z,9.42
2018-02-23T10:09:45.789Z,9.33
2018-02-23T10:10:48.301Z,10.55
2018-02-23T10:11:50.772Z,10.81
2018-02-23T10:12:53.231Z,10.36
2018-02-23T10:13:55.704Z,9.62
2018-02-23T10:14:58.189Z,9.42
2018-02-23T10:16:00.710Z,9.41
2018-02-23T10:17:03.149Z,9.42
2018-02-23T10:18:05.641Z,9.16
2018-02-23T10:19:08.123Z,8.85
2018-02-23T10:20:10.592Z,8.94
2018-02-23T10:21:13.055Z,9.15
2018-02-23T10:22:15.537Z,9.42
2018-02-23T10:23:18.006Z,9.27
2018-02-23T10:24:20.526Z,8.51
2018-02-23T10:25:23.349Z,9.09
2018-02-23T10:26:25.828Z,8.95
2018-02-23T10:27:28.307Z,8.77
2018-02-23T10:28:31.274Z,9.20
2018-02-23T10:29:33.767Z,10.06
2018-02-23T10:30:36.265Z,11.04
2018-02-23T10:31:38.763Z,12.02
2018-02-23T10:32:41.262Z,12.71
2018-02-23T10:33:43.735Z,12.51
2018-02-23T10:34:46.205Z,12.09
2018-02-23T10:35:48.695Z,12.67
2018-02-23T10:36:51.202Z,12.90
2018-02-23T10:37:53.669Z,13.78
2018-02-23T10:38:56.138Z,13.31
2018-02-23T10:39:58.628Z,12.89
2018-02-23T10:41:01.112Z,11.02
2018-02-23T10:42:03.583Z,11.41
2018-02-23T10:43:06.147Z,12.02
2018-02-23T10:44:08.615Z,11.60
2018-02-23T10:45:11.080Z,10.48
2018-02-23T10:46:13.573Z,11.47
2018-02-23T10:47:16.110Z,12.44
2018-02-23T10:48:18.577Z,13.06
2018-02-23T10:49:21.060Z,12.37
2018-02-23T10:50:23.568Z,11.81
2018-02-23T10:51:26.053Z,12.55
2018-02-23T10:52:28.542Z,13.72
2018-02-23T10:53:31.025Z,12.71
2018-02-23T10:54:33.527Z,12.71
2018-02-23T10:55:36.017Z,12.54
2018-02-23T10:56:38.491Z,12.51
2018-02-23T10:57:40.987Z,12.96
2018-02-23T10:58:43.491Z,12.73
2018-02-23T10:59:46.030Z,11.89
2018-02-23T11:00:48.517Z,11.93
2018-02-23T11:01:50.986Z,13.02
2018-02-23T11:02:53.463Z,13.83
2018-02-23T11:03:55.935Z,13.94
2018-02-23T11:04:58.534Z,15.55
2018-02-23T11:06:01.018Z,15.47
2018-02-23T11:07:03.504Z,14.74
2018-02-23T11:08:06.010Z,14.22
2018-02-23T11:09:08.534Z,13.98
2018-02-23T11:10:11.014Z,13.71
2018-02-23T11:11:13.517Z,13.33
2018-02-23T11:12:16.047Z,13.01
2018-02-23T11:13:18.547Z,13.48
2018-02-23T11:14:21.011Z,14.45
2018-02-23T11:15:23.502Z,14.91
2018-02-23T11:16:25.978Z,14.78
2018-02-23T11:17:28.464Z,14.54
2018-02-23T11:18:31.453Z,14.44
2018-02-23T11:19:34.390Z,13.70
2018-02-23T11:20:36.873Z,14.41
2018-02-23T11:21:39.368Z,14.83
2018-02-23T11:22:41.870Z,15.06
2018-02-23T11:23:44.337Z,15.34
2018-02-23T11:24:46.825Z,15.33
2018-02-23T11:25:49.310Z,16.08
2018-02-23T11:26:51.787Z,16.52
2018-02-23T11:27:54.285Z,15.76
2018-02-23T11:28:56.774Z,15.50
2018-02-23T11:29:59.245Z,16.01
2018-02-23T11:31:01.738Z,15.15
2018-02-23T11:32:04.267Z,15.50
2018-02-23T11:33:06.776Z,14.31
2018-02-23T11:34:09.269Z,14.47
2018-02-23T11:35:11.735Z,16.16
2018-02-23T11:36:14.213Z,17.06
2018-02-23T11:37:16.693Z,17.97
2018-02-23T11:38:19.180Z,16.16
2018-02-23T11:39:21.691Z,15.95
2018-02-23T11:40:24.191Z,16.53
2018-02-23T11:41:26.692Z,15.55
2018-02-23T11:42:29.192Z,14.64
2018-02-23T11:43:32.425Z,13.48
2018-02-23T11:44:34.899Z,14.50
2018-02-23T11:45:37.374Z,15.54
2018-02-23T11:46:39.931Z,16.86
2018-02-23T11:47:42.403Z,17.21
2018-02-23T11:48:44.884Z,16.38
2018-02-23T11:49:47.352Z,16.61
2018-02-23T11:50:49.833Z,16.30
2018-02-23T11:51:52.318Z,15.81
2018-02-23T11:52:54.806Z,17.28
2018-02-23T11:53:57.279Z,18.83
2018-02-23T11:54:59.747Z,18.34
2018-02-23T11:56:02.254Z,17.96
2018-02-23T11:57:04.760Z,18.66
2018-02-23T11:58:07.253Z,20.40
2018-02-23T11:59:09.799Z,20.69
2018-02-23T12:00:12.275Z,18.99
2018-02-23T12:01:14.765Z,18.86
2018-02-23T12:02:17.253Z,17.01
2018-02-23T12:03:19.719Z,18.05
2018-02-23T12:04:22.207Z,18.85
2018-02-23T12:05:24.678Z,17.73
2018-02-23T12:06:27.143Z,18.11
2018-02-23T12:07:29.611Z,19.21
2018-02-23T12:08:32.649Z,17.70
2018-02-23T12:09:35.161Z,17.04
2018-02-23T12:10:37.623Z,17.97
2018-02-23T12:11:40.102Z,18.76
2018-02-23T12:12:42.581Z,18.20
2018-02-23T12:13:45.059Z,17.93
2018-02-23T12:14:47.591Z,18.10
2018-02-23T12:15:50.075Z,17.65
2018-02-23T12:16:52.561Z,16.47
2018-02-23T12:17:55.054Z,16.88
2018-02-23T12:18:57.545Z,17.80
2018-02-23T12:20:00.038Z,16.83
2018-02-23T12:21:02.528Z,17.36
2018-02-23T12:22:05.065Z,17.85
2018-02-23T12:23:07.852Z,16.86
2018-02-23T12:24:10.424Z,16.64
2018-02-23T12:25:12.903Z,16.25
2018-02-23T12:26:15.395Z,16.61
2018-02-23T12:27:17.857Z,15.55
2018-02-23T12:28:20.389Z,15.24
2018-02-23T12:29:22.884Z,15.56
2018-02-23T12:30:25.407Z,16.33
2018-02-23T12:31:28.206Z,15.78
2018-02-23T12:32:30.728Z,14.67
2018-02-23T12:33:33.213Z,14.31
2018-02-23T12:34:35.690Z,15.15
2018-02-23T12:35:38.178Z,16.22
2018-02-23T12:36:40.670Z,15.41
2018-02-23T12:37:43.144Z,15.82
2018-02-23T12:38:45.636Z,16.89
2018-02-23T12:39:48.212Z,17.50
2018-02-23T12:40:50.693Z,18.12
2018-02-23T12:41:53.180Z,18.83
2018-02-23T12:42:55.652Z,17.42
2018-02-23T12:43:58.156Z,17.90
2018-02-23T12:45:00.627Z,16.40
2018-02-23T12:46:03.121Z,16.47
2018-02-23T12:47:05.609Z,16.39
2018-02-23T12:48:08.080Z,16.65
2018-02-23T12:49:10.551Z,16.91
2018-02-23T12:50:13.044Z,17.56
2018-02-23T12:51:15.561Z,17.32
2018-02-23T12:52:18.037Z,16.91
2018-02-23T12:53:20.573Z,18.28
2018-02-23T12:54:23.071Z,18.70
2018-02-23T12:55:25.561Z,19.16
2018-02-23T12:56:28.036Z,20.29
2018-02-23T12:57:30.506Z,20.41
2018-02-23T12:58:33.109Z,20.03
2018-02-23T12:59:35.598Z,18.49
2018-02-23T13:00:38.126Z,19.47
2018-02-23T13:01:40.650Z,19.73
2018-02-23T13:02:43.207Z,18.74
2018-02-23T13:03:45.763Z,19.84
2018-02-23T13:04:48.242Z,22.66
2018-02-23T13:05:50.734Z,23.56
2018-02-23T13:06:53.242Z,21.87
2018-02-23T13:07:55.806Z,20.67
2018-02-23T13:08:58.449Z,18.90
2018-02-23T13:10:00.925Z,18.30
2018-02-23T13:11:03.418Z,16.78
2018-02-23T13:12:05.879Z,15.66
2018-02-23T13:13:08.365Z,16.03
2018-02-23T13:14:10.861Z,16.76
2018-02-23T13:15:19.245Z,18.06
2018-02-23T13:16:27.206Z,19.28
2018-02-23T13:17:29.731Z,19.98
2018-02-23T13:18:32.280Z,19.56
2018-02-23T13:19:34.781Z,21.52
2018-02-23T13:20:37.273Z,20.97
2018-02-23T13:21:39.738Z,19.73
2018-02-23T13:22:42.222Z,19.89
2018-02-23T13:23:44.742Z,20.44
2018-02-23T13:24:47.204Z,19.65
2018-02-23T13:25:49.693Z,21.36
2018-02-23T13:26:52.177Z,22.18
2018-02-23T13:28:00.288Z,21.78
2018-02-23T13:29:02.782Z,21.15
2018-02-23T13:30:05.274Z,20.72
2018-02-23T13:31:07.772Z,19.81
2018-02-23T13:32:10.252Z,19.83
2018-02-23T13:33:12.783Z,19.16
2018-02-23T13:34:15.264Z,19.59
2018-02-23T13:35:17.781Z,21.31
2018-02-23T13:36:20.248Z,19.21
2018-02-23T13:37:22.759Z,19.26
2018-02-23T13:38:25.230Z,18.59
2018-02-23T13:39:27.713Z,18.78
2018-02-23T13:40:31.053Z,19.97
2018-02-23T13:41:39.046Z,19.48
2018-02-23T13:42:41.537Z,18.54
2018-02-23T13:43:44.012Z,18.21
2018-02-23T13:44:46.500Z,18.60
2018-02-23T13:45:49.020Z,18.09
2018-02-23T13:46:51.507Z,19.21
2018-02-23T13:47:54.037Z,18.76
2018-02-23T13:48:56.616Z,19.46
2018-02-23T13:49:59.118Z,21.49
2018-02-23T13:51:01.600Z,22.79
2018-02-23T13:52:04.095Z,20.33
2018-02-23T13:53:12.145Z,21.11
2018-02-23T13:54:20.403Z,19.78
2018-02-23T13:55:22.921Z,21.63
2018-02-23T13:56:25.519Z,23.05
2018-02-23T13:57:28.056Z,22.32
2018-02-23T13:58:30.586Z,20.27
2018-02-23T13:59:33.105Z,22.04
2018-02-23T14:00:35.583Z,21.78
2018-02-23T14:01:38.064Z,21.21
2018-02-23T14:02:40.561Z,20.83
2018-02-23T14:03:43.036Z,18.76
2018-02-23T14:04:45.654Z,19.20
2018-02-23T14:05:48.375Z,19.24
2018-02-23T15:23:33.253Z,15.21
2018-02-23T15:24:35.735Z,14.60
2018-02-23T15:25:38.222Z,14.65
2018-02-23T15:26:40.738Z,14.75
2018-02-23T15:27:43.217Z,14.13
2018-02-23T15:28:45.689Z,13.48
2018-02-23T15:29:48.185Z,13.64
2018-02-23T15:31:02.606Z,14.23
2018-02-23T15:32:18.328Z,14.74
2018-02-23T15:33:20.828Z,14.67
2018-02-23T15:34:23.307Z,14.32
2018-02-23T15:35:25.798Z,14.43
2018-02-23T15:36:28.285Z,13.78
2018-02-23T15:37:30.801Z,12.92
2018-02-23T15:38:33.300Z,12.20
2018-02-23T15:39:35.859Z,11.58
2018-02-23T15:40:38.361Z,11.90
2018-02-23T15:41:40.854Z,11.48
2018-02-23T15:42:43.364Z,11.41
2018-02-23T15:43:45.853Z,11.94
2018-02-23T15:44:48.332Z,12.01
2018-02-23T15:45:50.821Z,11.89
2018-02-23T15:46:53.330Z,11.82
2018-02-23T15:48:07.579Z,11.37
2018-02-23T16:12:10.865Z,10.03
2018-02-23T16:13:13.370Z,9.83
2018-02-23T16:14:15.907Z,9.38
2018-02-23T16:15:18.389Z,9.67
2018-02-23T16:16:21.356Z,10.10
2018-02-23T16:17:23.853Z,10.38
2018-02-23T16:18:26.405Z,9.80
2018-02-23T16:19:29.045Z,10.29
2018-02-23T16:20:31.606Z,10.21
2018-02-23T16:21:34.120Z,10.01
2018-02-23T16:22:36.595Z,10.36
2018-02-23T16:23:39.091Z,10.18
2018-02-23T16:24:41.577Z,9.09
2018-02-23T16:25:44.092Z,9.07
2018-02-23T16:26:46.563Z,8.03
2018-02-23T16:27:49.072Z,8.25
2018-02-23T16:28:51.589Z,8.16
2018-02-23T16:29:54.086Z,8.55
2018-02-23T16:30:56.561Z,8.51
2018-02-23T16:31:59.041Z,7.81
2018-02-23T16:33:01.516Z,7.37
2018-02-23T16:34:03.994Z,6.70
2018-02-23T16:35:06.530Z,6.09
2018-02-23T16:36:09.007Z,5.69
2018-02-23T16:37:11.489Z,5.30
2018-02-23T16:38:13.973Z,5.07
2018-02-23T16:39:16.454Z,4.70
2018-02-23T16:40:18.928Z,4.54
2018-02-23T16:41:21.395Z,4.42
2018-02-23T16:42:23.860Z,4.19
2018-02-23T16:43:26.347Z,3.98
2018-02-23T16:44:28.823Z,3.86
2018-02-23T16:45:31.324Z,3.91
2018-02-23T16:46:33.806Z,3.70
2018-02-23T16:47:36.342Z,3.63
2018-02-23T16:48:38.881Z,3.54
2018-02-23T16:49:41.390Z,3.36
2018-02-23T16:50:43.924Z,3.27
2018-02-23T16:51:46.449Z,3.19
2018-02-23T16:52:49.123Z,3.19
2018-02-23T16:53:51.592Z,2.98
2018-02-23T16:54:54.073Z,3.08
2018-02-23T16:55:56.553Z,3.17
2018-02-23T16:56:59.016Z,3.10
2018-02-23T16:58:01.475Z,2.81
2018-02-23T16:59:03.969Z,2.80
2018-02-23T17:00:06.450Z,2.78
2018-02-23T17:01:08.929Z,2.53
2018-02-23T17:02:11.432Z,2.46
2018-02-23T17:03:13.930Z,2.52
2018-02-23T17:04:16.401Z,2.62
2018-02-23T17:05:18.881Z,2.65
2018-02-23T17:06:21.352Z,2.79
2018-02-23T17:07:23.837Z,2.73
2018-02-23T17:08:26.394Z,2.64
2018-02-23T17:09:28.885Z,2.66
2018-02-23T17:10:31.375Z,2.76
2018-02-23T17:11:33.851Z,2.63
2018-02-23T17:12:36.373Z,2.55
2018-02-23T17:13:38.886Z,2.50
2018-02-23T17:14:41.365Z,2.45
2018-02-23T17:15:43.853Z,2.43
2018-02-23T17:16:46.341Z,2.35
2018-02-23T17:17:48.823Z,2.30
2018-02-23T17:18:51.287Z,2.37
2018-02-23T17:19:53.766Z,2.28
2018-02-23T17:20:56.252Z,2.12
2018-02-23T17:21:58.746Z,2.02
2018-02-23T17:23:01.245Z,1.83
2018-02-23T17:24:03.761Z,1.95
2018-02-23T17:25:06.245Z,1.95
2018-02-23T17:26:08.793Z,1.70
2018-02-23T17:27:11.760Z,1.96
2018-02-23T17:28:14.232Z,2.16
2018-02-23T17:29:16.709Z,2.19
2018-02-23T17:30:19.175Z,2.45
2018-02-23T17:31:21.665Z,2.39
2018-02-23T17:32:24.158Z,2.26
2018-02-23T17:33:26.628Z,2.39
2018-02-23T17:34:29.101Z,2.27
2018-02-23T17:35:31.616Z,2.11
2018-02-23T17:36:34.128Z,2.01
2018-02-23T17:37:36.613Z,1.94
2018-02-23T17:38:39.087Z,1.75
2018-02-23T17:39:41.608Z,1.67
2018-02-23T17:40:44.339Z,1.70
2018-02-23T17:41:46.829Z,1.71
2018-02-23T17:42:49.346Z,1.80
2018-02-23T17:43:51.829Z,1.83
2018-02-23T17:44:54.358Z,1.85
2018-02-23T17:45:56.823Z,1.68
2018-02-23T17:46:59.287Z,1.56
2018-02-23T17:48:01.760Z,1.56
2018-02-23T17:49:04.343Z,1.44
2018-02-23T17:50:06.848Z,1.30
2018-02-23T17:51:09.307Z,1.17
2018-02-23T17:52:11.802Z,1.36
2018-02-23T17:53:14.285Z,1.41
2018-02-23T17:54:16.748Z,1.36
2018-02-23T17:55:19.244Z,1.50
2018-02-23T17:56:21.707Z,1.32
2018-02-23T17:57:24.185Z,1.27
2018-02-23T17:58:26.651Z,1.09
2018-02-23T17:59:29.133Z,1.03
2018-02-23T18:00:31.617Z,0.99
2018-02-23T18:01:34.079Z,1.08
2018-02-23T18:02:36.629Z,0.98
2018-02-23T18:03:39.091Z,1.13
2018-02-23T18:04:41.560Z,1.13
2018-02-23T18:05:44.384Z,0.89
2018-02-23T18:06:46.956Z,0.81
2018-02-23T18:07:49.447Z,0.74
2018-02-23T18:08:51.917Z,0.67
2018-02-23T18:09:54.383Z,0.55
2018-02-23T18:10:56.851Z,0.51
2018-02-23T18:11:59.385Z,0.68
2018-02-23T18:13:01.869Z,0.57
2018-02-23T18:14:04.355Z,0.43
2018-02-23T18:15:06.835Z,0.66
2018-02-23T18:16:09.334Z,0.68
2018-02-23T18:17:11.807Z,0.62
2018-02-23T18:18:14.280Z,0.57
2018-02-23T18:19:16.743Z,0.26
2018-02-23T18:20:19.222Z,0.23
2018-02-23T18:21:21.698Z,0.40
2018-02-23T18:22:24.190Z,0.27
2018-02-23T18:23:27.185Z,0.26
2018-02-23T18:24:29.689Z,0.54
2018-02-23T18:25:32.178Z,0.65
2018-02-23T18:26:34.669Z,0.79
2018-02-23T18:27:37.649Z,0.81
2018-02-23T18:28:40.139Z,0.76
2018-02-23T18:29:42.672Z,0.66
2018-02-23T18:30:45.145Z,0.70
2018-02-23T18:31:47.632Z,0.58
2018-02-23T18:32:50.115Z,0.63
2018-02-23T18:33:52.598Z,0.58
2018-02-23T18:34:55.067Z,0.57
2018-02-23T18:35:57.536Z,0.51
2018-02-23T18:37:00.110Z,0.47
2018-02-23T18:38:02.871Z,0.23
2018-02-23T18:39:05.380Z,0.12
2018-02-23T18:40:07.863Z,0.15
2018-02-23T18:41:10.353Z,0.02
2018-02-23T18:42:12.823Z,-0.15
2018-02-23T18:43:15.325Z,-0.25
2018-02-23T18:44:17.797Z,-0.02
2018-02-23T18:45:20.293Z,-0.07
2018-02-23T18:46:22.765Z,-0.04
2018-02-23T18:47:25.314Z,-0.11
2018-02-23T18:48:28.891Z,-0.21
2018-02-23T18:49:31.422Z,-0.06
2018-02-23T18:50:34.002Z,-0.29
2018-02-23T18:51:36.479Z,-0.13
2018-02-23T18:52:38.970Z,-0.02
2018-02-23T18:53:41.489Z,0.21
2018-02-23T18:54:43.969Z,0.13
2018-02-23T18:55:46.458Z,-0.12
2018-02-23T18:56:48.932Z,-0.22
2018-02-23T18:57:51.405Z,0.21
2018-02-23T18:58:53.893Z,-0.02
2018-02-23T18:59:56.395Z,-0.04
2018-02-23T19:00:58.864Z,0.01
2018-02-23T19:02:01.448Z,-0.19
2018-02-23T19:03:03.934Z,-0.19
2018-02-23T19:04:06.437Z,-0.31
2018-02-23T19:05:08.974Z,-0.34
2018-02-23T19:06:11.411Z,-0.36
2018-02-23T19:07:13.899Z,0.03
2018-02-23T19:08:16.389Z,0.11
2018-02-23T19:09:18.863Z,-0.13
2018-02-23T19:10:21.361Z,-0.19
2018-02-23T19:11:23.922Z,-0.31
2018-02-23T19:12:26.347Z,-0.18
2018-02-23T19:13:28.845Z,-0.26
2018-02-23T19:14:31.332Z,-0.37
2018-02-23T19:15:33.827Z,-0.32
2018-02-23T19:16:36.290Z,-0.03
2018-02-23T19:17:38.760Z,-0.16
2018-02-23T19:18:41.253Z,0.03
2018-02-23T19:19:43.739Z,0.08
2018-02-23T19:20:46.217Z,0.05
2018-02-23T19:21:48.759Z,0.12
2018-02-23T19:22:51.224Z,0.01
2018-02-23T19:23:53.737Z,-0.23
2018-02-23T19:24:56.208Z,-0.47
2018-02-23T19:25:58.687Z,-0.68
2018-02-23T19:27:01.161Z,-0.81
2018-02-23T19:28:03.648Z,-0.90
2018-02-23T19:29:06.152Z,-0.65
2018-02-23T19:30:08.662Z,-0.40
2018-02-23T19:31:11.160Z,-0.51
2018-02-23T19:32:13.647Z,-0.82
2018-02-23T19:33:16.127Z,-0.90
2018-02-23T19:34:18.595Z,-0.71
2018-02-23T19:35:21.088Z,-0.24
2018-02-23T19:36:23.585Z,-0.49
2018-02-23T19:37:26.076Z,-0.55
2018-02-23T19:38:28.557Z,-0.29
2018-02-23T19:39:31.042Z,-0.42
2018-02-23T19:40:33.528Z,-0.51
2018-02-23T19:41:36.015Z,-0.54
2018-02-23T19:42:38.503Z,-0.39
2018-02-23T19:43:40.987Z,-0.31
2018-02-23T19:44:43.467Z,-0.32
2018-02-23T19:45:45.977Z,-0.25
2018-02-23T19:46:48.448Z,-0.33
2018-02-23T19:47:51.023Z,-0.18
2018-02-23T19:48:53.507Z,-0.27
2018-02-23T19:49:55.982Z,-0.24
2018-02-23T19:50:58.455Z,-0.16
2018-02-23T19:52:00.935Z,-0.25
2018-02-23T19:53:03.415Z,-0.15
2018-02-23T19:54:05.887Z,-0.09
2018-02-23T19:55:08.361Z,-0.06
2018-02-23T19:56:10.957Z,-0.20
2018-02-23T19:57:13.438Z,-0.16
2018-02-23T19:58:15.936Z,-0.14
2018-02-23T19:59:18.429Z,-0.07
2018-02-23T20:00:20.923Z,-0.08
2018-02-23T20:01:23.413Z,-0.33
2018-02-23T20:02:25.889Z,-0.52
2018-02-23T20:03:28.370Z,-0.46
2018-02-23T20:04:30.842Z,-0.64
2018-02-23T20:05:33.329Z,-0.51
2018-02-23T20:06:35.796Z,-0.25
2018-02-23T20:07:38.289Z,-0.31
2018-02-23T20:08:40.786Z,-0.22
2018-02-23T20:09:43.263Z,-0.35
2018-02-23T20:10:45.735Z,-0.31
2018-02-23T20:11:48.208Z,-0.46
2018-02-23T20:12:50.701Z,-0.45
2018-02-23T20:13:53.190Z,-0.60
2018-02-23T20:14:55.664Z,-0.74
2018-02-23T20:15:58.178Z,-0.94
2018-02-23T20:17:00.675Z,-0.93
2018-02-23T20:18:03.172Z,-1.11
2018-02-23T20:19:05.653Z,-1.15
2018-02-23T20:20:08.133Z,-0.86
2018-02-23T20:21:10.619Z,-0.89
2018-02-23T20:22:13.105Z,-0.75
2018-02-23T20:23:15.579Z,-0.78
2018-02-23T20:24:18.075Z,-1.07
2018-02-23T20:25:20.585Z,-0.89
2018-02-23T20:26:23.077Z,-0.86
2018-02-23T20:27:25.544Z,-0.99
2018-02-23T20:28:28.012Z,-0.86
2018-02-23T20:29:30.480Z,-0.73
2018-02-23T20:30:32.963Z,-0.80
2018-02-23T20:31:35.471Z,-0.67
2018-02-23T20:32:38.061Z,-0.88
2018-02-23T20:33:40.636Z,-1.04
2018-02-23T20:34:43.174Z,-0.83
2018-02-23T20:35:45.733Z,-1.02
2018-02-23T20:36:48.259Z,-1.25
2018-02-23T20:37:50.870Z,-1.23
2018-02-23T20:38:53.430Z,-1.11
2018-02-23T20:39:55.943Z,-1.21
2018-02-23T20:40:58.415Z,-1.23
2018-02-23T20:42:00.902Z,-1.25
2018-02-23T20:43:03.389Z,-0.88
2018-02-23T20:44:05.887Z,-0.91
2018-02-23T20:45:08.376Z,-0.79
2018-02-23T20:46:10.857Z,-0.87
2018-02-23T20:47:13.355Z,-0.92
2018-02-23T20:48:15.824Z,-0.90
2018-02-23T20:49:18.296Z,-0.93
2018-02-23T20:50:20.775Z,-0.74
2018-02-23T20:51:23.240Z,-0.68
2018-02-23T20:52:25.790Z,-0.56
2018-02-23T20:53:28.301Z,-0.44
2018-02-23T20:54:30.818Z,-0.54
2018-02-23T20:55:33.331Z,-0.54
2018-02-23T20:56:35.809Z,-0.78
2018-02-23T20:57:38.280Z,-0.66
2018-02-23T20:58:40.777Z,-0.77
2018-02-23T20:59:43.259Z,-0.90
2018-02-23T21:00:45.761Z,-1.10
2018-02-23T21:01:48.256Z,-1.21
2018-02-23T21:02:50.719Z,-1.29
2018-02-23T21:03:53.209Z,-1.10
2018-02-23T21:04:55.683Z,-1.24
2018-02-23T21:05:58.171Z,-1.30
2018-02-23T21:07:00.677Z,-1.35
2018-02-23T21:08:03.166Z,-1.26
2018-02-23T21:09:05.628Z,-1.21
2018-02-23T21:10:08.102Z,-1.13
2018-02-23T21:11:10.574Z,-1.23
2018-02-23T21:12:13.066Z,-1.39
2018-02-23T21:13:15.551Z,-1.42
2018-02-23T21:14:18.039Z,-1.29
2018-02-23T21:15:20.506Z,-1.47
2018-02-23T21:16:23.014Z,-1.70
2018-02-23T21:17:25.498Z,-1.85
2018-02-23T21:18:27.981Z,-1.80
2018-02-23T21:19:30.484Z,-1.55
2018-02-23T21:20:32.957Z,-1.11
2018-02-23T21:21:35.437Z,-1.34
2018-02-23T21:22:37.925Z,-1.32
2018-02-23T21:23:40.413Z,-1.38
2018-02-23T21:24:42.880Z,-1.33
2018-02-23T21:25:45.364Z,-1.40
2018-02-23T21:26:47.862Z,-1.28
2018-02-23T21:27:50.327Z,-1.32
2018-02-23T21:28:52.814Z,-1.50
2018-02-23T21:29:55.279Z,-1.41
2018-02-23T21:30:57.751Z,-1.66
2018-02-23T21:32:00.215Z,-1.71
2018-02-23T21:33:02.683Z,-1.93
2018-02-23T21:34:05.189Z,-1.98
2018-02-23T21:35:07.771Z,-1.92
2018-02-23T21:36:10.242Z,-1.93
2018-02-23T21:37:12.717Z,-2.02
2018-02-23T21:38:15.186Z,-1.87
2018-02-23T21:39:17.643Z,-1.85
2018-02-23T21:40:20.103Z,-1.78
2018-02-23T21:41:22.587Z,-1.69
2018-02-23T21:42:25.058Z,-1.93
2018-02-23T21:43:27.523Z,-1.99
2018-02-23T21:44:41.738Z,-1.91
2018-02-23T21:45:44.216Z,-1.44
2018-02-23T21:46:46.700Z,-1.39
2018-02-23T21:47:49.175Z,-1.30
2018-02-23T21:48:51.647Z,-1.64
2018-02-23T21:49:54.129Z,-1.81
2018-02-23T21:50:56.612Z,-1.91
2018-02-23T21:51:59.101Z,-1.73
2018-02-23T21:53:01.585Z,-1.41
2018-02-23T21:54:04.238Z,-1.27
2018-02-23T21:55:06.721Z,-1.38
2018-02-23T21:56:09.187Z,-1.65
2018-02-23T21:57:11.672Z,-1.75
2018-02-23T21:58:14.191Z,-1.64
2018-02-23T21:59:16.641Z,-1.63
2018-02-23T22:00:19.128Z,-1.62
2018-02-23T22:01:21.722Z,-1.69
2018-02-23T22:02:24.194Z,-1.51
2018-02-23T22:03:26.682Z,-1.46
2018-02-23T22:04:29.152Z,-1.33
2018-02-23T22:05:31.653Z,-1.30
2018-02-23T22:06:34.137Z,-1.47
2018-02-23T22:07:36.673Z,-1.42
2018-02-23T22:08:39.111Z,-1.63
2018-02-23T22:09:41.642Z,-1.54
2018-02-23T22:10:44.079Z,-1.60
2018-02-23T22:11:46.543Z,-1.63
2018-02-23T22:12:49.046Z,-1.63
2018-02-23T22:13:51.515Z,-1.75
2018-02-23T22:14:53.996Z,-1.74
2018-02-23T22:15:56.477Z,-1.59
2018-02-23T22:16:58.995Z,-1.62
2018-02-23T22:18:01.475Z,-1.83
2018-02-23T22:19:03.945Z,-1.89
2018-02-23T22:20:06.430Z,-1.79
2018-02-23T22:21:08.925Z,-1.75
2018-02-23T22:22:11.396Z,-1.86
2018-02-23T22:23:13.866Z,-1.54
2018-02-23T22:24:16.335Z,-1.43
2018-02-23T22:25:18.808Z,-1.36
2018-02-23T22:26:21.299Z,-1.54